Time;durP1;ratioP1;P1;durP2;ratioP2;P2;SDS_P1;SDS_P2;PMS_P1;PMS_P2;Temp;Humidity;BMP_temperature;BMP_pressure;BME280_temperature;BME280_humidity;BME280_pressure;Samples;Min_cycle;Max_cycle;Signal;HPM_P1;HPM_P2
2022/04/21 00:00:33;;;;;;;12.57;5.22;;;7.10;99.90;;;;;;5054387;28;20067;-83
2022/04/21 00:03:00;;;;;;;11.30;5.15;;;7.10;99.90;;;;;;5053195;28;20064;-83
2022/04/21 00:05:25;;;;;;;11.70;5.20;;;7.10;99.90;;;;;;5055380;28;20040;-83
2022/04/21 00:07:52;;;;;;;11.02;5.40;;;7.10;99.90;;;;;;5070666;28;20056;-83
2022/04/21 00:10:19;;;;;;;12.00;5.75;;;7.00;99.90;;;;;;5053405;28;20049;-83
2022/04/21 00:12:44;;;;;;;12.25;5.43;;;7.00;99.90;;;;;;5054026;28;20045;-83
2022/04/21 00:15:11;;;;;;;11.32;5.55;;;7.00;99.90;;;;;;5054277;28;20091;-83
2022/04/21 00:17:37;;;;;;;12.52;5.47;;;6.90;99.90;;;;;;5054646;28;20065;-83
2022/04/21 00:20:04;;;;;;;12.70;5.00;;;6.90;99.90;;;;;;5055045;28;20040;-83
2022/04/21 00:25:13;;;;;;;12.10;5.70;;;6.90;99.90;;;;;;5053081;28;20080;-83
2022/04/21 00:27:40;;;;;;;13.27;5.28;;;6.90;99.90;;;;;;5053606;28;20073;-83
2022/04/21 00:30:07;;;;;;;14.75;6.07;;;6.80;99.90;;;;;;5054424;28;20055;-83
2022/04/21 00:32:37;;;;;;;12.35;5.88;;;6.80;99.90;;;;;;5054985;28;20048;-83
2022/04/21 00:35:05;;;;;;;13.13;5.60;;;6.80;99.90;;;;;;5053228;28;20041;-83
2022/04/21 00:37:31;;;;;;;13.93;6.28;;;6.80;99.90;;;;;;5054200;28;20053;-83
2022/04/21 00:39:57;;;;;;;12.63;5.75;;;6.80;99.90;;;;;;5053270;28;20481;-83
2022/04/21 00:42:22;;;;;;;13.82;5.75;;;6.80;99.90;;;;;;5054797;28;20095;-83
2022/04/21 00:44:50;;;;;;;13.93;5.88;;;6.80;99.90;;;;;;5052955;28;20041;-83
2022/04/21 00:47:17;;;;;;;11.20;5.68;;;6.70;99.90;;;;;;5075016;28;20048;-83
2022/04/21 00:49:44;;;;;;;12.50;5.88;;;6.70;99.90;;;;;;5056500;28;20036;-83
2022/04/21 00:52:10;;;;;;;14.52;6.13;;;6.70;99.90;;;;;;5055847;28;20094;-83
2022/04/21 00:54:35;;;;;;;13.60;6.05;;;6.60;99.90;;;;;;5074843;28;20044;-83
2022/04/21 00:57:02;;;;;;;12.65;5.80;;;6.60;99.90;;;;;;5056497;28;20048;-83
2022/04/21 00:59:28;;;;;;;13.50;6.35;;;6.60;99.90;;;;;;5055844;28;20079;-83
2022/04/21 01:04:39;;;;;;;12.18;6.10;;;6.50;99.90;;;;;;5074623;28;20087;-83
2022/04/21 01:07:08;;;;;;;15.27;6.57;;;6.50;99.90;;;;;;5055504;28;20051;-83
2022/04/21 01:09:37;;;;;;;12.60;5.93;;;6.40;99.90;;;;;;5074084;28;20044;-83
2022/04/21 01:12:09;;;;;;;14.60;7.13;;;6.40;99.90;;;;;;5056284;28;20056;-83
2022/04/21 01:14:37;;;;;;;13.38;6.30;;;6.30;99.90;;;;;;5073676;28;20108;-83
2022/04/21 01:17:04;;;;;;;12.77;6.38;;;6.30;99.90;;;;;;5056109;28;20556;-83
2022/04/21 01:19:30;;;;;;;13.97;6.00;;;6.30;99.90;;;;;;5073646;28;20499;-83
2022/04/21 01:21:55;;;;;;;12.35;6.22;;;6.20;99.90;;;;;;5055621;28;20048;-83
2022/04/21 01:24:21;;;;;;;13.03;6.57;;;6.10;99.90;;;;;;5074258;28;20044;-83
2022/04/21 01:26:47;;;;;;;13.83;6.23;;;6.10;99.90;;;;;;5073214;28;20499;-83
2022/04/21 01:29:13;;;;;;;18.27;7.37;;;6.00;99.90;;;;;;5055843;28;20048;-83
2022/04/21 01:31:39;;;;;;;15.67;6.57;;;6.00;99.90;;;;;;5073650;28;20369;-83
2022/04/21 01:34:04;;;;;;;15.70;6.77;;;6.00;99.90;;;;;;5073152;28;20047;-83
2022/04/21 01:36:30;;;;;;;14.27;7.10;;;5.90;99.90;;;;;;5055747;28;20480;-83
2022/04/21 01:41:40;;;;;;;15.30;7.07;;;5.90;99.90;;;;;;5072439;28;20048;-83
2022/04/21 01:44:05;;;;;;;13.53;6.63;;;5.90;99.90;;;;;;5073659;28;20048;-83
2022/04/21 01:46:31;;;;;;;15.80;6.97;;;5.90;99.90;;;;;;5055611;28;20149;-83
2022/04/21 01:48:57;;;;;;;14.17;6.60;;;5.90;99.90;;;;;;5072152;28;20045;-83
2022/04/21 01:51:22;;;;;;;14.90;7.23;;;5.90;99.90;;;;;;5055469;28;20452;-83
2022/04/21 01:53:48;;;;;;;15.00;7.40;;;6.00;99.90;;;;;;5073381;28;20450;-82
2022/04/21 01:56:14;;;;;;;13.57;7.20;;;5.90;99.90;;;;;;5054748;28;20047;-83
2022/04/21 01:58:41;;;;;;;16.27;7.50;;;5.90;99.90;;;;;;5054958;28;20079;-83
2022/04/21 02:01:06;;;;;;;12.50;7.10;;;5.90;99.90;;;;;;5073249;28;20103;-82
2022/04/21 02:03:32;;;;;;;15.20;7.70;;;5.90;99.90;;;;;;5054670;28;20519;-83
2022/04/21 02:05:58;;;;;;;15.13;7.53;;;5.90;99.90;;;;;;5072402;28;20192;-83
2022/04/21 02:08:24;;;;;;;14.93;7.53;;;5.90;99.90;;;;;;5073063;28;20049;-83
2022/04/21 02:10:50;;;;;;;14.37;7.60;;;5.90;99.90;;;;;;5071718;28;20044;-82
2022/04/21 02:13:15;;;;;;;14.60;7.27;;;5.90;99.90;;;;;;5054979;28;20044;-83
2022/04/21 02:15:41;;;;;;;13.87;7.10;;;5.80;99.90;;;;;;5072211;28;20048;-83
2022/04/21 02:18:07;;;;;;;14.87;7.70;;;5.80;99.90;;;;;;5073072;28;20044;-83
2022/04/21 02:20:32;;;;;;;16.40;7.63;;;5.80;99.90;;;;;;5072769;28;20462;-82
2022/04/21 02:22:58;;;;;;;15.43;7.40;;;5.80;99.90;;;;;;5054077;28;20840;-83
2022/04/21 02:25:23;;;;;;;17.10;7.23;;;5.80;99.90;;;;;;5054992;28;20036;-82
2022/04/21 02:27:50;;;;;;;16.67;7.25;;;5.80;99.90;;;;;;5072470;28;20116;-82
2022/04/21 02:30:18;;;;;;;16.58;7.72;;;5.80;99.90;;;;;;5072421;28;20046;-83
2022/04/21 02:32:44;;;;;;;13.70;7.07;;;5.80;99.90;;;;;;5072847;28;20040;-82
2022/04/21 02:35:10;;;;;;;14.93;7.87;;;5.80;99.90;;;;;;5054788;28;20124;-82
2022/04/21 02:37:40;;;;;;;14.43;7.30;;;5.80;99.90;;;;;;5054395;28;20488;-83
2022/04/21 02:40:08;;;;;;;17.13;7.68;;;5.90;99.90;;;;;;5054308;28;20500;-83
2022/04/21 02:42:34;;;;;;;16.77;8.07;;;5.80;99.90;;;;;;5054779;28;20048;-82
2022/04/21 02:45:00;;;;;;;14.33;7.17;;;5.80;99.90;;;;;;5069349;28;20055;-83
2022/04/21 02:47:26;;;;;;;14.70;7.67;;;5.90;99.90;;;;;;5035003;28;20140;-83
2022/04/21 02:49:53;;;;;;;14.20;7.25;;;5.80;99.90;;;;;;5034515;28;20045;-83
2022/04/21 02:52:19;;;;;;;15.70;7.57;;;5.80;99.90;;;;;;5051645;28;20481;-82
2022/04/21 02:57:30;;;;;;;;;;;5.80;99.90;;;;;;5053281;28;20041;-83
2022/04/21 03:00:01;;;;;;;14.03;7.23;;;5.80;99.90;;;;;;5034038;28;19931;-82
2022/04/21 03:02:27;;;;;;;14.10;7.57;;;5.70;99.90;;;;;;5038520;28;20049;-82
2022/04/21 03:04:53;;;;;;;16.63;8.13;;;5.70;99.90;;;;;;5037679;28;20048;-82
2022/04/21 03:07:20;;;;;;;16.30;8.15;;;5.60;99.90;;;;;;5056445;28;20053;-82
2022/04/21 03:09:46;;;;;;;14.40;7.55;;;5.50;99.90;;;;;;5038202;28;20049;-82
2022/04/21 03:12:12;;;;;;;18.17;8.70;;;5.50;99.90;;;;;;5055919;28;20080;-83
2022/04/21 03:14:40;;;;;;;15.93;8.30;;;5.40;99.90;;;;;;5056685;28;20091;-83
2022/04/21 03:17:07;;;;;;;14.37;7.60;;;5.40;99.90;;;;;;5056783;28;20129;-83
2022/04/21 03:19:33;;;;;;;17.97;8.70;;;5.30;99.90;;;;;;5055577;28;20045;-83
2022/04/21 03:24:44;;;;;;;15.77;8.20;;;5.30;99.90;;;;;;5056231;28;20049;-82
2022/04/21 03:27:09;;;;;;;15.47;7.97;;;5.30;99.90;;;;;;5037558;28;20073;-82
2022/04/21 03:29:37;;;;;;;16.70;8.53;;;5.20;99.90;;;;;;5056998;28;20083;-82
2022/04/21 03:32:10;;;;;;;15.30;7.93;;;5.20;99.90;;;;;;5038133;28;20080;-83
2022/04/21 03:34:40;;;;;;;17.60;8.13;;;5.20;99.90;;;;;;5055704;28;20442;-82
2022/04/21 03:37:11;;;;;;;16.53;8.03;;;5.20;99.90;;;;;;5056303;28;20048;-82
2022/04/21 03:39:37;;;;;;;15.73;8.07;;;5.20;99.90;;;;;;5037790;28;20091;-82
2022/04/21 03:42:04;;;;;;;17.83;8.90;;;5.20;99.90;;;;;;5037178;28;20513;-83
2022/04/21 03:44:30;;;;;;;19.93;8.80;;;5.70;99.90;;;;;;5037962;28;20508;-83
2022/04/21 03:46:57;;;;;;;16.17;8.43;;;5.10;99.90;;;;;;5033906;28;20080;-82
2022/04/21 03:49:30;;;;;;;16.57;8.93;;;5.10;99.90;;;;;;5036302;28;20064;-82
2022/04/21 03:51:56;;;;;;;15.70;8.57;;;5.20;99.90;;;;;;5037822;28;20142;-83
2022/04/21 03:54:23;;;;;;;16.20;8.33;;;5.20;99.90;;;;;;5055290;28;20033;-83
2022/04/21 03:56:50;;;;;;;17.23;8.30;;;5.10;99.90;;;;;;5037367;28;20457;-82
2022/04/21 03:59:17;;;;;;;16.13;8.43;;;5.20;99.90;;;;;;5055858;28;20051;-82
2022/04/21 04:01:42;;;;;;;17.90;8.97;;;5.20;99.90;;;;;;5044199;28;22424;-82
2022/04/21 04:04:08;;;;;;;17.17;8.70;;;5.10;99.90;;;;;;5038000;28;20125;-82
2022/04/21 04:12:19;;;;;;;;;;;5.10;99.90;;;;;;5029004;28;20053;-83
2022/04/21 04:14:44;;;;;;;18.77;8.77;;;5.10;99.90;;;;;;5035095;28;19921;-83
2022/04/21 04:17:10;;;;;;;16.93;8.50;;;5.10;99.90;;;;;;5033751;28;20092;-82
2022/04/21 04:19:35;;;;;;;16.40;8.63;;;5.10;99.90;;;;;;5035653;28;20501;-83
2022/04/21 04:22:02;;;;;;;17.03;9.00;;;5.10;99.90;;;;;;5033537;28;20118;-82
2022/04/21 04:24:28;;;;;;;17.20;8.73;;;5.00;99.90;;;;;;5034777;28;20056;-82
2022/04/21 04:26:54;;;;;;;17.93;9.07;;;5.00;99.90;;;;;;5034940;28;20042;-83
2022/04/21 04:29:22;;;;;;;16.60;8.87;;;5.00;99.90;;;;;;5034672;28;20090;-82
2022/04/21 04:31:54;;;;;;;18.27;9.30;;;4.90;99.90;;;;;;5033826;28;20060;-82
2022/04/21 04:34:21;;;;;;;17.27;9.47;;;4.90;99.90;;;;;;5034584;28;20493;-82
2022/04/21 04:36:47;;;;;;;18.73;10.47;;;4.90;99.90;;;;;;5033876;28;20497;-83
2022/04/21 04:39:13;;;;;;;17.77;9.60;;;4.90;99.90;;;;;;5035078;28;20044;-82
2022/04/21 04:44:24;;;;;;;18.77;8.90;;;4.90;99.90;;;;;;5034345;28;20045;-83
2022/04/21 04:46:50;;;;;;;18.47;9.00;;;4.90;99.90;;;;;;5069233;28;20067;-83
2022/04/21 04:49:16;;;;;;;17.73;9.20;;;4.90;99.90;;;;;;5074603;28;20079;-83
2022/04/21 04:51:41;;;;;;;18.57;9.47;;;4.90;99.90;;;;;;5073583;28;20128;-83
2022/04/21 04:54:09;;;;;;;18.00;9.20;;;4.90;99.90;;;;;;5056582;28;20048;-83
2022/04/21 04:56:36;;;;;;;17.23;9.50;;;4.90;99.90;;;;;;5056785;28;20490;-82
2022/04/21 04:59:02;;;;;;;17.20;8.87;;;4.90;99.90;;;;;;5073780;28;20048;-82
2022/04/21 05:01:41;;;;;;;16.43;8.73;;;4.90;99.90;;;;;;5056752;28;20044;-82
2022/04/21 05:04:15;;;;;;;16.40;8.60;;;5.00;99.90;;;;;;5056679;28;20434;-82
2022/04/21 05:06:46;;;;;;;16.80;8.77;;;5.00;99.90;;;;;;5073380;28;20067;-82
2022/04/21 05:09:14;;;;;;;18.20;8.60;;;5.00;99.90;;;;;;5074452;28;20045;-82
2022/04/21 05:11:42;;;;;;;17.50;8.67;;;5.10;99.90;;;;;;5055356;28;20087;-82
2022/04/21 05:14:09;;;;;;;15.87;9.23;;;5.10;99.90;;;;;;5074365;28;20071;-83
2022/04/21 05:16:42;;;;;;;16.67;8.70;;;5.10;99.90;;;;;;5074372;28;20037;-83
2022/04/21 05:19:08;;;;;;;16.47;9.07;;;5.10;99.90;;;;;;5055389;28;20542;-82
2022/04/21 05:21:35;;;;;;;19.53;9.07;;;5.20;99.90;;;;;;5074288;28;20051;-82
2022/04/21 05:24:03;;;;;;;15.37;8.53;;;5.20;99.90;;;;;;5073658;28;20051;-83
2022/04/21 05:26:30;;;;;;;16.53;8.80;;;5.30;99.90;;;;;;5055471;28;20435;-82
2022/04/21 05:28:57;;;;;;;17.63;9.00;;;5.30;99.90;;;;;;5055824;28;20523;-82
2022/04/21 05:31:24;;;;;;;17.87;9.20;;;5.40;99.90;;;;;;5073863;28;20083;-83
2022/04/21 05:33:50;;;;;;;15.57;8.60;;;5.50;99.90;;;;;;5054728;28;20059;-83
2022/04/21 05:36:15;;;;;;;16.93;8.47;;;5.50;99.90;;;;;;5074024;28;20041;-82
2022/04/21 05:38:42;;;;;;;18.13;8.93;;;5.60;99.90;;;;;;5055902;28;20105;-82
2022/04/21 05:41:07;;;;;;;16.40;8.37;;;5.60;99.90;;;;;;5055348;28;20437;-83
2022/04/21 05:43:44;;;;;;;15.37;8.80;;;5.70;99.90;;;;;;5055569;28;20040;-82
2022/04/21 05:46:12;;;;;;;16.50;8.70;;;5.70;99.90;;;;;;5055477;28;20079;-82
2022/04/21 05:48:38;;;;;;;14.93;7.73;;;5.80;99.90;;;;;;5072960;28;20049;-82
2022/04/21 05:51:05;;;;;;;16.43;8.23;;;5.90;99.90;;;;;;5073226;28;20488;-82
2022/04/21 05:53:38;;;;;;;13.13;7.37;;;6.00;99.90;;;;;;5055702;28;20475;-85
2022/04/21 05:56:06;;;;;;;17.33;7.25;;;6.10;99.90;;;;;;5056088;28;20037;-85
2022/04/21 05:58:32;;;;;;;15.30;6.93;;;6.30;99.90;;;;;;5060655;28;20054;-85
2022/04/21 06:01:00;;;;;;;14.17;7.00;;;6.40;99.90;;;;;;5051253;28;20051;-85
2022/04/21 06:03:36;;;;;;;16.57;6.90;;;7.30;99.90;;;;;;5053954;28;20118;-86
2022/04/21 06:06:02;;;;;;;13.63;6.78;;;6.60;99.90;;;;;;5073048;28;20041;-86
2022/04/21 06:08:30;;;;;;;13.67;6.47;;;6.60;99.90;;;;;;5054202;28;20115;-86
2022/04/21 06:10:56;;;;;;;13.23;6.50;;;6.90;99.90;;;;;;5072381;28;20127;-86
2022/04/21 06:13:23;;;;;;;12.85;6.75;;;7.00;99.90;;;;;;5073100;28;20122;-84
2022/04/21 06:15:49;;;;;;;14.63;6.10;;;7.10;99.90;;;;;;5072409;28;20044;-85
2022/04/21 06:18:14;;;;;;;13.45;6.47;;;7.20;99.90;;;;;;5074517;28;20040;-85
2022/04/21 06:20:40;;;;;;;14.00;6.20;;;7.30;99.90;;;;;;5072974;28;20036;-86
2022/04/21 06:23:06;;;;;;;12.45;5.90;;;7.40;99.90;;;;;;5054643;28;20597;-87
2022/04/21 06:25:32;;;;;;;11.75;5.78;;;7.50;99.90;;;;;;5091304;22;20407;-88
2022/04/21 06:27:58;;;;;;;11.45;5.68;;;7.80;99.90;;;;;;5077536;28;20050;-87
2022/04/21 06:30:27;;;;;;;12.45;5.68;;;7.60;99.90;;;;;;5075749;28;20036;-88
2022/04/21 06:32:53;;;;;;;12.25;5.60;;;7.80;99.90;;;;;;5074845;28;20495;-90
2022/04/21 06:35:19;;;;;;;14.20;5.20;;;8.60;99.90;;;;;;5093893;28;20047;-90
2022/04/21 06:37:46;;;;;;;11.02;5.40;;;7.90;99.90;;;;;;5092150;28;20044;-87
2022/04/21 06:40:12;;;;;;;12.30;5.30;;;7.90;99.90;;;;;;5069664;28;20493;-86
2022/04/21 06:42:38;;;;;;;11.65;5.40;;;8.70;99.90;;;;;;5084961;28;20044;-90
2022/04/21 06:48:04;;;;;;;12.88;5.30;;;8.40;99.90;;;;;;5072508;28;20120;-86
2022/04/21 06:50:45;;;;;;;11.68;4.78;;;8.50;99.90;;;;;;5054505;28;20045;-85
2022/04/21 06:53:12;;;;;;;12.90;5.40;;;8.70;99.90;;;;;;5055103;28;20045;-85
2022/04/21 06:55:58;;;;;;;10.88;5.13;;;8.70;99.90;;;;;;5065069;28;20834;-85
2022/04/21 06:58:24;;;;;;;11.02;4.65;;;9.40;99.90;;;;;;5071846;28;20048;-85
2022/04/21 07:00:49;;;;;;;11.77;4.43;;;9.00;99.90;;;;;;5054703;28;20094;-85
2022/04/21 07:03:15;;;;;;;10.98;4.60;;;9.20;99.90;;;;;;5054799;23;20057;-85
2022/04/21 07:05:40;;;;;;;10.55;4.53;;;9.40;99.90;;;;;;5051627;28;20377;-85
2022/04/21 07:08:07;;;;;;;10.23;4.43;;;9.50;99.90;;;;;;5052641;28;20052;-85
2022/04/21 07:10:33;;;;;;;9.95;4.53;;;9.60;99.90;;;;;;5052810;28;20045;-85
2022/04/21 07:12:59;;;;;;;10.38;4.30;;;9.70;99.90;;;;;;5033488;28;20076;-85
2022/04/21 07:15:25;;;;;;;11.02;4.70;;;9.80;99.90;;;;;;5052754;28;20087;-84
2022/04/21 07:17:50;;;;;;;10.18;4.05;;;9.90;99.90;;;;;;5034345;28;20114;-87
2022/04/21 07:20:16;;;;;;;9.20;4.07;;;10.00;99.90;;;;;;5051617;28;20382;-86
2022/04/21 07:22:41;;;;;;;9.95;4.13;;;10.10;99.90;;;;;;5044216;28;20495;-87
2022/04/21 07:25:09;;;;;;;10.38;4.32;;;10.20;99.90;;;;;;5042366;28;20508;-87
2022/04/21 07:27:36;;;;;;;9.95;4.32;;;10.30;99.90;;;;;;5020712;28;20045;-87
2022/04/21 07:30:02;;;;;;;9.23;4.18;;;10.40;99.90;;;;;;5016763;28;20057;-84
2022/04/21 07:32:28;;;;;;;10.05;4.15;;;10.50;99.90;;;;;;5041124;28;20041;-84
2022/04/21 07:34:54;;;;;;;9.00;3.90;;;10.60;99.90;;;;;;5042599;28;20116;-85
2022/04/21 07:37:20;;;;;;;9.60;4.30;;;10.70;99.90;;;;;;5032067;28;20045;-85
2022/04/21 07:39:45;;;;;;;10.98;3.90;;;10.80;99.90;;;;;;5036075;28;20046;-85
2022/04/21 07:42:11;;;;;;;9.23;3.78;;;10.90;99.90;;;;;;5023120;28;20428;-86
2022/04/21 07:44:37;;;;;;;9.45;3.95;;;11.10;99.90;;;;;;5040106;28;20037;-86
2022/04/21 07:47:04;;;;;;;11.45;4.15;;;11.20;99.90;;;;;;5014174;28;20073;-84
2022/04/21 07:49:46;;;;;;;9.15;3.63;;;11.20;99.90;;;;;;5035680;28;20409;-87
2022/04/21 07:55:13;;;;;;;10.98;4.18;;;11.40;99.90;;;;;;5035295;28;20049;-86
2022/04/21 07:57:42;;;;;;;9.52;3.72;;;11.60;99.90;;;;;;5028173;28;20046;-85
2022/04/21 08:00:09;;;;;;;8.82;3.50;;;11.70;99.90;;;;;;5035789;28;20037;-85
2022/04/21 08:02:51;;;;;;;9.50;3.35;;;11.90;99.90;;;;;;5035720;28;20037;-86
2022/04/21 08:08:11;;;;;;;7.85;3.30;;;12.90;99.90;;;;;;5057441;28;20060;-91
2022/04/21 08:10:57;;;;;;;8.75;3.10;;;13.00;99.90;;;;;;5050331;28;20388;-89
2022/04/21 08:13:34;;;;;;;9.18;3.50;;;13.00;99.90;;;;;;5079589;28;20044;-87
2022/04/21 08:16:23;;;;;;;9.88;3.60;;;12.30;99.90;;;;;;5074531;28;20377;-91
2022/04/21 08:18:54;;;;;;;;;;;12.60;99.90;;;;;;5073551;22;20053;-91
2022/04/21 08:21:47;;;;;;;8.30;3.20;;;12.50;99.90;;;;;;5040097;28;19921;-88
2022/04/21 08:35:25;;;;;;;8.18;3.10;;;13.20;99.90;;;;;;5059641;22;20075;-89
2022/04/21 08:38:07;;;;;;;9.75;3.60;;;13.10;99.90;;;;;;5045638;28;20052;-89
2022/04/21 08:40:59;;;;;;;9.50;3.40;;;13.10;99.90;;;;;;5043402;28;20087;-95
2022/04/21 08:43:37;;;;;;;8.30;3.60;;;13.50;99.90;;;;;;5036144;28;20048;-88
2022/04/21 08:46:08;;;;;;;9.02;3.17;;;13.60;99.90;;;;;;5038068;28;20037;-90
2022/04/21 08:48:46;;;;;;;8.32;3.10;;;13.90;99.90;;;;;;5040478;28;20538;-91
2022/04/21 08:51:23;;;;;;;9.82;3.53;;;12.70;99.90;;;;;;5036947;28;20340;-92
2022/04/21 08:53:49;;;;;;;8.32;3.20;;;14.20;99.90;;;;;;5054618;28;20505;-93
2022/04/21 08:56:22;;;;;;;8.45;3.22;;;13.60;99.90;;;;;;5036240;28;20094;-89
2022/04/21 08:59:06;;;;;;;8.65;3.35;;;14.60;99.90;;;;;;5035054;28;20033;-89
2022/04/21 09:01:34;;;;;;;7.97;3.22;;;13.70;99.90;;;;;;5068979;28;20049;-89
2022/04/21 09:06:38;;;;;;;8.25;3.65;;;14.20;99.90;;;;;;5095568;22;20102;-89
2022/04/21 09:09:21;;;;;;;9.10;3.40;;;14.30;99.90;;;;;;5082272;22;20420;-89
2022/04/21 09:11:53;;;;;;;7.80;3.20;;;15.70;99.90;;;;;;5058359;28;20041;-89
2022/04/21 09:14:20;;;;;;;9.07;3.78;;;14.40;99.90;;;;;;5065137;28;20400;-86
2022/04/21 09:17:07;;;;;;;9.02;3.53;;;14.60;99.90;;;;;;5064987;28;20064;-87
2022/04/21 09:19:32;;;;;;;8.80;3.45;;;14.80;99.90;;;;;;5063782;28;20080;-87
2022/04/21 09:22:00;;;;;;;8.75;3.20;;;15.20;99.90;;;;;;5064913;28;20873;-88
2022/04/21 09:24:27;;;;;;;8.68;3.35;;;14.50;99.90;;;;;;5071968;28;20408;-86
2022/04/21 09:27:05;;;;;;;8.88;3.47;;;14.90;99.90;;;;;;5066673;28;20055;-86
2022/04/21 09:29:43;;;;;;;10.80;3.63;;;15.20;99.90;;;;;;5073891;28;20506;-88
2022/04/21 09:32:23;;;;;;;9.57;3.67;;;15.40;99.50;;;;;;5068548;28;20105;-86
2022/04/21 09:35:00;;;;;;;10.82;3.33;;;15.20;97.90;;;;;;5072318;28;20050;-87
2022/04/21 09:38:07;;;;;;;9.70;3.97;;;15.00;98.50;;;;;;5072459;28;20569;-87
2022/04/21 09:40:33;;;;;;;10.02;3.58;;;15.40;97.00;;;;;;5017472;28;20057;-87
2022/04/21 09:43:05;;;;;;;8.98;3.60;;;15.50;99.20;;;;;;5046699;28;20045;-91
2022/04/21 09:48:30;;;;;;;8.07;3.63;;;16.40;97.00;;;;;;5056420;28;20053;-88
2022/04/21 09:51:16;;;;;;;9.18;3.90;;;15.10;97.90;;;;;;5063063;28;20279;-86
2022/04/21 09:54:02;;;;;;;9.15;3.72;;;15.30;96.50;;;;;;5065387;28;20123;-87
2022/04/21 09:56:42;;;;;;;7.95;3.70;;;15.60;97.20;;;;;;5070777;28;20046;-88
2022/04/21 09:59:12;;;;;;;9.57;3.53;;;16.20;97.00;;;;;;5068471;28;20131;-87
2022/04/21 10:01:50;;;;;;;9.05;3.80;;;16.00;97.10;;;;;;5070298;28;20044;-88
2022/04/21 10:04:34;;;;;;;8.07;3.78;;;16.00;96.60;;;;;;5059986;28;20052;-87
2022/04/21 10:07:18;;;;;;;9.20;3.80;;;17.10;97.30;;;;;;5059591;28;20473;-87
2022/04/21 10:09:54;;;;;;;8.13;3.45;;;16.20;95.00;;;;;;5054751;28;20102;-86
2022/04/21 10:13:11;;;;;;;7.72;3.40;;;16.20;95.90;;;;;;5072080;23;20061;-87
2022/04/21 10:15:38;;;;;;;12.88;3.78;;;16.50;95.00;;;;;;5053211;28;20076;-87
2022/04/21 10:18:04;;;;;;;9.25;3.30;;;15.50;95.40;;;;;;5038179;28;20488;-87
2022/04/21 10:20:52;;;;;;;8.75;3.60;;;16.40;95.10;;;;;;5045472;28;20033;-87
2022/04/21 10:23:19;;;;;;;8.35;3.47;;;16.20;94.50;;;;;;5051606;28;20537;-88
2022/04/21 10:25:45;;;;;;;10.25;3.80;;;16.70;95.10;;;;;;5072650;28;20048;-85
2022/04/21 10:28:39;;;;;;;8.20;3.45;;;16.20;95.30;;;;;;5053537;28;20106;-87
2022/04/21 10:31:28;;;;;;;10.27;3.72;;;16.10;94.20;;;;;;5054614;28;20497;-87
2022/04/21 10:34:00;;;;;;;7.85;3.45;;;16.40;93.30;;;;;;5072723;28;20056;-87
2022/04/21 10:36:41;;;;;;;10.00;4.00;;;16.80;94.90;;;;;;5072235;28;20115;-87
2022/04/21 10:39:25;;;;;;;10.50;3.70;;;17.20;94.70;;;;;;5072752;28;20044;-88
2022/04/21 10:42:12;;;;;;;8.63;3.67;;;17.60;93.70;;;;;;5054813;28;20048;-87
2022/04/21 10:44:51;;;;;;;9.73;3.53;;;18.10;92.80;;;;;;5056096;28;20045;-85
2022/04/21 10:47:37;;;;;;;10.27;3.65;;;18.10;91.40;;;;;;5072767;28;20040;-85
2022/04/21 10:50:11;;;;;;;10.07;3.90;;;18.30;91.30;;;;;;5071416;28;20549;-84
2022/04/21 10:57:50;;;;;;;9.13;3.90;;;18.20;91.00;;;;;;5071754;28;20135;-85
2022/04/21 11:00:31;;;;;;;8.88;3.85;;;18.30;91.30;;;;;;5097977;23;20045;-84
2022/04/21 11:03:25;;;;;;;7.60;3.28;;;18.50;90.10;;;;;;5032306;28;20064;-85
2022/04/21 11:06:13;;;;;;;9.70;3.25;;;18.70;87.60;;;;;;5032001;28;20124;-86
2022/04/21 11:08:41;;;;;;;11.20;3.70;;;18.30;83.30;;;;;;5031721;28;20045;-85
2022/04/21 11:11:07;;;;;;;10.10;3.60;;;18.30;86.80;;;;;;5013984;28;20068;-84
2022/04/21 11:13:42;;;;;;;8.35;3.70;;;18.30;87.70;;;;;;5031430;28;20045;-84
2022/04/21 11:16:09;;;;;;;9.68;3.60;;;18.10;85.20;;;;;;5013753;28;20052;-84
2022/04/21 11:18:34;;;;;;;8.55;4.00;;;18.30;87.00;;;;;;5031268;28;20040;-84
2022/04/21 11:21:21;;;;;;;10.07;3.72;;;18.20;86.10;;;;;;5031894;28;20503;-84
2022/04/21 11:23:47;;;;;;;10.25;3.90;;;18.30;83.90;;;;;;5035954;28;20045;-84
2022/04/21 11:26:12;;;;;;;8.60;4.10;;;18.20;87.20;;;;;;5035711;28;20493;-84
2022/04/21 11:28:45;;;;;;;9.45;4.25;;;18.30;87.60;;;;;;5036193;28;20080;-84
2022/04/21 11:31:12;;;;;;;9.95;3.67;;;18.70;87.20;;;;;;5035528;28;20117;-84
2022/04/21 11:33:45;;;;;;;9.02;4.00;;;18.70;87.30;;;;;;5018567;28;20053;-84
2022/04/21 11:36:15;;;;;;;9.68;4.20;;;18.90;85.90;;;;;;5036589;28;20108;-84
2022/04/21 11:38:49;;;;;;;8.57;3.97;;;19.20;86.90;;;;;;5034693;28;20568;-83
2022/04/21 11:41:15;;;;;;;8.10;3.80;;;19.20;86.70;;;;;;5018551;28;20493;-84
2022/04/21 11:43:48;;;;;;;10.13;3.97;;;18.90;87.20;;;;;;5034421;28;20073;-84
2022/04/21 11:46:14;;;;;;;10.13;4.07;;;18.50;84.70;;;;;;5034199;28;20485;-84
2022/04/21 11:48:41;;;;;;;8.50;3.70;;;18.60;86.80;;;;;;5018479;28;20424;-84
2022/04/21 11:51:09;;;;;;;10.27;3.90;;;18.70;86.80;;;;;;5018047;28;20087;-84
2022/04/21 11:53:36;;;;;;;11.05;4.22;;;18.70;86.30;;;;;;5035403;28;20060;-84
2022/04/21 11:56:04;;;;;;;9.70;4.00;;;18.50;85.30;;;;;;5035454;28;20508;-84
2022/04/21 11:58:32;;;;;;;8.82;4.03;;;18.70;84.30;;;;;;5018186;28;20392;-84
2022/04/21 12:06:32;;;;;;;9.63;3.38;;;19.20;83.60;;;;;;5055069;28;20045;-84
2022/04/21 12:08:59;;;;;;;9.00;3.60;;;19.10;83.80;;;;;;5055317;28;20040;-83
2022/04/21 12:11:26;;;;;;;9.18;3.92;;;18.90;82.70;;;;;;5055963;28;20037;-84
2022/04/21 12:13:52;;;;;;;13.25;4.10;;;19.00;83.30;;;;;;5037298;28;20549;-84
2022/04/21 12:16:40;;;;;;;8.32;3.88;;;18.50;83.40;;;;;;5055519;28;20123;-84
2022/04/21 12:19:13;;;;;;;8.68;4.20;;;18.20;82.30;;;;;;5055244;28;20084;-84
2022/04/21 12:21:39;;;;;;;10.07;4.15;;;18.00;83.60;;;;;;5036566;28;20396;-83
2022/04/21 12:24:17;;;;;;;9.63;3.95;;;17.80;83.90;;;;;;5037366;28;20044;-83
2022/04/21 12:26:50;;;;;;;9.38;3.95;;;18.20;83.80;;;;;;5054853;28;20083;-84
2022/04/21 12:29:16;;;;;;;11.43;3.90;;;18.40;84.00;;;;;;5036816;28;20143;-84
2022/04/21 12:31:46;;;;;;;11.57;3.90;;;18.70;83.80;;;;;;5054694;28;20047;-84
2022/04/21 12:34:12;;;;;;;9.65;3.88;;;19.00;83.20;;;;;;5054502;28;20053;-84
2022/04/21 12:36:37;;;;;;;8.43;3.75;;;19.30;83.60;;;;;;5036371;28;20396;-84
2022/04/21 12:39:03;;;;;;;9.10;3.70;;;19.40;82.80;;;;;;5054835;28;20091;-84
2022/04/21 12:41:29;;;;;;;11.35;4.05;;;19.70;83.30;;;;;;5054479;28;20045;-83
2022/04/21 12:43:56;;;;;;;10.05;3.88;;;19.80;82.50;;;;;;5054448;28;20496;-84
2022/04/21 12:46:22;;;;;;;8.57;3.65;;;19.50;81.60;;;;;;5055016;28;20048;-83
2022/04/21 12:48:51;;;;;;;8.93;3.80;;;18.80;80.30;;;;;;5035972;28;20045;-84
2022/04/21 12:51:19;;;;;;;8.82;4.07;;;18.70;81.20;;;;;;5054986;28;20045;-84
2022/04/21 12:53:53;;;;;;;9.60;3.45;;;18.90;82.00;;;;;;5054620;28;20044;-83
2022/04/21 12:56:18;;;;;;;9.43;3.83;;;19.30;82.00;;;;;;5053966;28;20049;-84
2022/04/21 12:58:54;;;;;;;12.32;3.80;;;19.10;81.60;;;;;;5054217;28;20052;-84
2022/04/21 13:01:20;;;;;;;11.23;3.95;;;19.10;81.40;;;;;;5055102;28;20405;-83
2022/04/21 13:03:45;;;;;;;9.68;3.83;;;19.30;81.70;;;;;;5035406;28;20049;-83
2022/04/21 13:06:11;;;;;;;11.45;3.80;;;19.60;81.40;;;;;;5036724;28;20163;-84
2022/04/21 13:08:37;;;;;;;8.95;3.28;;;20.00;82.90;;;;;;5054310;28;20048;-84
2022/04/21 13:11:12;;;;;;;9.30;3.53;;;20.50;83.30;;;;;;5052083;28;20129;-84
2022/04/21 13:13:37;;;;;;;10.85;3.90;;;20.60;82.60;;;;;;5054556;28;20037;-84
2022/04/21 13:16:06;;;;;;;9.75;3.75;;;20.40;82.00;;;;;;5036213;28;20050;-84
2022/04/21 13:18:32;;;;;;;8.88;3.88;;;20.20;80.70;;;;;;5053771;28;20120;-84
2022/04/21 13:23:46;;;;;;;9.85;4.18;;;19.50;81.40;;;;;;5026781;28;20045;-84
2022/04/21 13:26:11;;;;;;;9.18;4.13;;;19.30;81.10;;;;;;5053816;28;20044;-84
2022/04/21 13:28:37;;;;;;;10.82;4.18;;;18.90;81.00;;;;;;5036313;28;20033;-84
2022/04/21 13:33:47;;;;;;;9.98;3.95;;;19.40;81.70;;;;;;5054052;28;20088;-84
2022/04/21 13:36:13;;;;;;;12.07;3.85;;;19.60;81.20;;;;;;5053649;28;20045;-84
2022/04/21 13:38:39;;;;;;;8.63;3.90;;;19.70;80.80;;;;;;5051858;28;20040;-84
2022/04/21 13:41:04;;;;;;;9.50;4.00;;;19.50;80.90;;;;;;5036182;28;20504;-84
2022/04/21 13:43:30;;;;;;;8.65;3.97;;;19.30;80.80;;;;;;5035838;28;20136;-84
2022/04/21 13:45:57;;;;;;;9.07;4.25;;;19.10;80.80;;;;;;5052655;28;20102;-84
2022/04/21 13:48:24;;;;;;;8.95;4.28;;;19.00;81.20;;;;;;5036006;28;20135;-84
2022/04/21 13:50:50;;;;;;;9.02;4.18;;;18.90;81.50;;;;;;5053157;28;20366;-84
2022/04/21 13:53:16;;;;;;;9.45;4.55;;;19.10;81.90;;;;;;5052824;28;20457;-84
2022/04/21 13:55:42;;;;;;;10.00;4.72;;;19.10;81.90;;;;;;5035332;28;20052;-84
2022/04/21 13:58:07;;;;;;;11.05;4.20;;;19.30;81.80;;;;;;5053773;28;20140;-84
2022/04/21 14:00:33;;;;;;;9.55;4.13;;;19.30;81.80;;;;;;5051856;28;20558;-84